sensor_id;sensor_type;location;lat;lon;timestamp;P1;durP1;ratioP1;P2;durP2;ratioP2
14247;SDS011;7208;49.826;6.004;2023-07-13T00:01:19;1.43;;;1.13;;
14247;SDS011;7208;49.826;6.004;2023-07-13T00:03:45;1.20;;;1.10;;
14247;SDS011;7208;49.826;6.004;2023-07-13T00:06:12;2.47;;;0.90;;
14247;SDS011;7208;49.826;6.004;2023-07-13T00:08:38;4.10;;;1.10;;
14247;SDS011;7208;49.826;6.004;2023-07-13T00:11:04;3.70;;;0.90;;
14247;SDS011;7208;49.826;6.004;2023-07-13T00:13:31;1.57;;;1.30;;
14247;SDS011;7208;49.826;6.004;2023-07-13T00:15:58;1.30;;;1.20;;
14247;SDS011;7208;49.826;6.004;2023-07-13T00:18:26;0.83;;;0.83;;
14247;SDS011;7208;49.826;6.004;2023-07-13T00:20:55;0.80;;;0.80;;
14247;SDS011;7208;49.826;6.004;2023-07-13T00:23:21;1.00;;;1.00;;
14247;SDS011;7208;49.826;6.004;2023-07-13T00:25:47;1.00;;;0.90;;
14247;SDS011;7208;49.826;6.004;2023-07-13T00:28:13;0.83;;;0.80;;
14247;SDS011;7208;49.826;6.004;2023-07-13T00:30:39;0.97;;;0.80;;
14247;SDS011;7208;49.826;6.004;2023-07-13T00:33:05;1.17;;;1.00;;
14247;SDS011;7208;49.826;6.004;2023-07-13T00:35:31;1.10;;;0.87;;
14247;SDS011;7208;49.826;6.004;2023-07-13T00:37:57;2.80;;;1.20;;
14247;SDS011;7208;49.826;6.004;2023-07-13T00:40:23;1.77;;;1.27;;
14247;SDS011;7208;49.826;6.004;2023-07-13T00:42:51;1.40;;;1.13;;
14247;SDS011;7208;49.826;6.004;2023-07-13T00:47:43;1.30;;;1.20;;
14247;SDS011;7208;49.826;6.004;2023-07-13T00:50:10;1.70;;;1.30;;
14247;SDS011;7208;49.826;6.004;2023-07-13T00:52:38;1.30;;;1.20;;
14247;SDS011;7208;49.826;6.004;2023-07-13T00:55:06;1.40;;;1.30;;
14247;SDS011;7208;49.826;6.004;2023-07-13T00:57:32;1.47;;;1.37;;
14247;SDS011;7208;49.826;6.004;2023-07-13T00:59:59;1.70;;;1.57;;
14247;SDS011;7208;49.826;6.004;2023-07-13T01:02:32;1.30;;;1.03;;
14247;SDS011;7208;49.826;6.004;2023-07-13T01:04:58;1.27;;;0.97;;
14247;SDS011;7208;49.826;6.004;2023-07-13T01:07:24;1.60;;;1.00;;
14247;SDS011;7208;49.826;6.004;2023-07-13T01:09:50;1.97;;;1.77;;
14247;SDS011;7208;49.826;6.004;2023-07-13T01:12:16;1.63;;;0.90;;
14247;SDS011;7208;49.826;6.004;2023-07-13T01:14:42;1.80;;;1.10;;
14247;SDS011;7208;49.826;6.004;2023-07-13T01:17:09;1.37;;;1.20;;
14247;SDS011;7208;49.826;6.004;2023-07-13T01:19:43;2.57;;;1.10;;
14247;SDS011;7208;49.826;6.004;2023-07-13T01:22:11;1.27;;;1.17;;
14247;SDS011;7208;49.826;6.004;2023-07-13T01:24:38;1.07;;;0.87;;
14247;SDS011;7208;49.826;6.004;2023-07-13T01:27:05;2.00;;;0.93;;
14247;SDS011;7208;49.826;6.004;2023-07-13T01:29:32;2.77;;;0.90;;
14247;SDS011;7208;49.826;6.004;2023-07-13T01:31:58;1.10;;;0.77;;
14247;SDS011;7208;49.826;6.004;2023-07-13T01:34:26;0.73;;;0.73;;
14247;SDS011;7208;49.826;6.004;2023-07-13T01:36:53;1.23;;;0.70;;
14247;SDS011;7208;49.826;6.004;2023-07-13T01:39:20;0.97;;;0.90;;
14247;SDS011;7208;49.826;6.004;2023-07-13T01:41:46;2.33;;;0.90;;
14247;SDS011;7208;49.826;6.004;2023-07-13T01:44:12;0.80;;;0.80;;
14247;SDS011;7208;49.826;6.004;2023-07-13T01:46:39;0.80;;;0.80;;
14247;SDS011;7208;49.826;6.004;2023-07-13T01:49:05;1.03;;;1.03;;
14247;SDS011;7208;49.826;6.004;2023-07-13T01:51:31;1.13;;;1.10;;
14247;SDS011;7208;49.826;6.004;2023-07-13T01:53:57;1.50;;;1.40;;
14247;SDS011;7208;49.826;6.004;2023-07-13T01:56:23;1.37;;;1.33;;
14247;SDS011;7208;49.826;6.004;2023-07-13T01:58:49;2.50;;;1.20;;
14247;SDS011;7208;49.826;6.004;2023-07-13T02:01:15;2.93;;;1.40;;
14247;SDS011;7208;49.826;6.004;2023-07-13T02:03:41;1.27;;;1.17;;
14247;SDS011;7208;49.826;6.004;2023-07-13T02:06:07;0.97;;;0.93;;
14247;SDS011;7208;49.826;6.004;2023-07-13T02:08:33;1.10;;;1.00;;
14247;SDS011;7208;49.826;6.004;2023-07-13T02:10:59;2.87;;;1.30;;
14247;SDS011;7208;49.826;6.004;2023-07-13T02:13:25;2.10;;;1.10;;
14247;SDS011;7208;49.826;6.004;2023-07-13T02:15:51;0.93;;;0.93;;
14247;SDS011;7208;49.826;6.004;2023-07-13T02:18:18;1.40;;;1.10;;
14247;SDS011;7208;49.826;6.004;2023-07-13T02:20:44;2.13;;;1.13;;
14247;SDS011;7208;49.826;6.004;2023-07-13T02:23:10;2.73;;;1.33;;
14247;SDS011;7208;49.826;6.004;2023-07-13T02:25:37;3.37;;;0.90;;
14247;SDS011;7208;49.826;6.004;2023-07-13T02:28:03;1.77;;;0.90;;
14247;SDS011;7208;49.826;6.004;2023-07-13T02:30:30;1.17;;;0.70;;
14247;SDS011;7208;49.826;6.004;2023-07-13T02:32:56;3.23;;;0.80;;
14247;SDS011;7208;49.826;6.004;2023-07-13T02:35:22;5.03;;;1.20;;
14247;SDS011;7208;49.826;6.004;2023-07-13T02:37:48;2.30;;;0.80;;
14247;SDS011;7208;49.826;6.004;2023-07-13T02:40:15;1.00;;;0.60;;
14247;SDS011;7208;49.826;6.004;2023-07-13T02:42:41;1.23;;;0.80;;
14247;SDS011;7208;49.826;6.004;2023-07-13T02:45:08;2.77;;;0.97;;
14247;SDS011;7208;49.826;6.004;2023-07-13T02:47:35;2.00;;;0.80;;
14247;SDS011;7208;49.826;6.004;2023-07-13T02:50:01;1.27;;;0.60;;
14247;SDS011;7208;49.826;6.004;2023-07-13T02:52:27;1.43;;;0.80;;
14247;SDS011;7208;49.826;6.004;2023-07-13T02:54:53;1.87;;;0.80;;
14247;SDS011;7208;49.826;6.004;2023-07-13T02:57:19;1.00;;;1.00;;
14247;SDS011;7208;49.826;6.004;2023-07-13T02:59:45;0.77;;;0.77;;
14247;SDS011;7208;49.826;6.004;2023-07-13T03:02:11;0.77;;;0.77;;
14247;SDS011;7208;49.826;6.004;2023-07-13T03:04:38;3.37;;;0.70;;
14247;SDS011;7208;49.826;6.004;2023-07-13T03:07:06;0.90;;;0.60;;
14247;SDS011;7208;49.826;6.004;2023-07-13T03:09:33;1.60;;;0.77;;
14247;SDS011;7208;49.826;6.004;2023-07-13T03:11:59;2.37;;;1.00;;
14247;SDS011;7208;49.826;6.004;2023-07-13T03:14:25;4.00;;;0.83;;
14247;SDS011;7208;49.826;6.004;2023-07-13T03:16:51;4.10;;;0.90;;
14247;SDS011;7208;49.826;6.004;2023-07-13T03:19:18;2.03;;;0.90;;
14247;SDS011;7208;49.826;6.004;2023-07-13T03:21:44;1.60;;;0.83;;
14247;SDS011;7208;49.826;6.004;2023-07-13T03:24:10;0.70;;;0.60;;
14247;SDS011;7208;49.826;6.004;2023-07-13T03:26:36;1.00;;;0.90;;
14247;SDS011;7208;49.826;6.004;2023-07-13T03:29:02;2.00;;;0.80;;
14247;SDS011;7208;49.826;6.004;2023-07-13T03:31:29;1.70;;;0.60;;
14247;SDS011;7208;49.826;6.004;2023-07-13T03:33:56;3.73;;;1.00;;
14247;SDS011;7208;49.826;6.004;2023-07-13T03:36:24;2.30;;;1.10;;
14247;SDS011;7208;49.826;6.004;2023-07-13T03:38:54;1.33;;;1.10;;
14247;SDS011;7208;49.826;6.004;2023-07-13T03:41:21;0.90;;;0.60;;
14247;SDS011;7208;49.826;6.004;2023-07-13T03:43:47;2.43;;;0.87;;
14247;SDS011;7208;49.826;6.004;2023-07-13T03:46:14;2.47;;;0.70;;
14247;SDS011;7208;49.826;6.004;2023-07-13T03:48:40;1.53;;;1.07;;
14247;SDS011;7208;49.826;6.004;2023-07-13T03:51:08;1.37;;;1.10;;
14247;SDS011;7208;49.826;6.004;2023-07-13T03:53:37;0.63;;;0.63;;
14247;SDS011;7208;49.826;6.004;2023-07-13T03:56:04;2.13;;;0.97;;
14247;SDS011;7208;49.826;6.004;2023-07-13T03:58:39;0.80;;;0.80;;
14247;SDS011;7208;49.826;6.004;2023-07-13T04:01:06;1.37;;;0.80;;
14247;SDS011;7208;49.826;6.004;2023-07-13T04:03:33;1.10;;;0.93;;
14247;SDS011;7208;49.826;6.004;2023-07-13T04:06:00;1.10;;;1.10;;
14247;SDS011;7208;49.826;6.004;2023-07-13T04:08:30;1.50;;;1.40;;
14247;SDS011;7208;49.826;6.004;2023-07-13T04:10:56;2.90;;;2.70;;
14247;SDS011;7208;49.826;6.004;2023-07-13T04:13:23;1.40;;;1.40;;
14247;SDS011;7208;49.826;6.004;2023-07-13T04:15:49;2.77;;;2.17;;
14247;SDS011;7208;49.826;6.004;2023-07-13T04:18:15;3.70;;;2.00;;
14247;SDS011;7208;49.826;6.004;2023-07-13T04:20:42;2.43;;;1.50;;
14247;SDS011;7208;49.826;6.004;2023-07-13T04:23:08;1.10;;;0.80;;
14247;SDS011;7208;49.826;6.004;2023-07-13T04:25:34;1.20;;;1.00;;
14247;SDS011;7208;49.826;6.004;2023-07-13T04:28:00;2.37;;;0.80;;
14247;SDS011;7208;49.826;6.004;2023-07-13T04:30:26;1.17;;;0.93;;
14247;SDS011;7208;49.826;6.004;2023-07-13T04:32:52;1.87;;;1.37;;
14247;SDS011;7208;49.826;6.004;2023-07-13T04:35:19;1.80;;;1.43;;
14247;SDS011;7208;49.826;6.004;2023-07-13T04:37:46;4.03;;;1.63;;
14247;SDS011;7208;49.826;6.004;2023-07-13T04:40:13;2.23;;;1.50;;
14247;SDS011;7208;49.826;6.004;2023-07-13T04:42:39;1.70;;;1.70;;
14247;SDS011;7208;49.826;6.004;2023-07-13T04:45:06;2.13;;;2.03;;
14247;SDS011;7208;49.826;6.004;2023-07-13T04:47:32;2.50;;;2.40;;
14247;SDS011;7208;49.826;6.004;2023-07-13T04:49:58;2.80;;;2.60;;
14247;SDS011;7208;49.826;6.004;2023-07-13T04:52:24;4.20;;;3.00;;
14247;SDS011;7208;49.826;6.004;2023-07-13T04:54:50;2.60;;;2.40;;
14247;SDS011;7208;49.826;6.004;2023-07-13T04:57:16;3.77;;;2.30;;
14247;SDS011;7208;49.826;6.004;2023-07-13T04:59:42;2.37;;;2.17;;
14247;SDS011;7208;49.826;6.004;2023-07-13T05:02:08;4.03;;;2.23;;
14247;SDS011;7208;49.826;6.004;2023-07-13T05:04:34;3.83;;;2.40;;
14247;SDS011;7208;49.826;6.004;2023-07-13T05:07:00;3.37;;;2.60;;
14247;SDS011;7208;49.826;6.004;2023-07-13T05:09:26;3.30;;;3.00;;
14247;SDS011;7208;49.826;6.004;2023-07-13T05:11:52;4.13;;;3.53;;
14247;SDS011;7208;49.826;6.004;2023-07-13T05:14:18;6.27;;;4.93;;
14247;SDS011;7208;49.826;6.004;2023-07-13T05:16:44;4.97;;;4.57;;
14247;SDS011;7208;49.826;6.004;2023-07-13T05:19:11;4.03;;;3.93;;
14247;SDS011;7208;49.826;6.004;2023-07-13T05:21:38;3.90;;;3.37;;
14247;SDS011;7208;49.826;6.004;2023-07-13T05:24:04;4.73;;;4.30;;
14247;SDS011;7208;49.826;6.004;2023-07-13T05:26:30;3.13;;;2.93;;
14247;SDS011;7208;49.826;6.004;2023-07-13T05:28:56;2.77;;;2.67;;
14247;SDS011;7208;49.826;6.004;2023-07-13T05:31:22;2.60;;;2.50;;
14247;SDS011;7208;49.826;6.004;2023-07-13T05:33:48;3.27;;;2.57;;
14247;SDS011;7208;49.826;6.004;2023-07-13T05:36:14;3.30;;;3.20;;
14247;SDS011;7208;49.826;6.004;2023-07-13T05:38:40;2.87;;;2.77;;
14247;SDS011;7208;49.826;6.004;2023-07-13T05:41:06;2.77;;;2.57;;
14247;SDS011;7208;49.826;6.004;2023-07-13T05:43:33;2.43;;;2.33;;
14247;SDS011;7208;49.826;6.004;2023-07-13T05:45:59;2.90;;;2.80;;
14247;SDS011;7208;49.826;6.004;2023-07-13T05:48:25;2.90;;;2.37;;
14247;SDS011;7208;49.826;6.004;2023-07-13T05:50:52;3.17;;;2.30;;
14247;SDS011;7208;49.826;6.004;2023-07-13T05:53:18;3.03;;;2.70;;
14247;SDS011;7208;49.826;6.004;2023-07-13T05:55:44;7.53;;;3.33;;
14247;SDS011;7208;49.826;6.004;2023-07-13T05:58:16;3.07;;;2.87;;
14247;SDS011;7208;49.826;6.004;2023-07-13T06:00:42;3.30;;;3.10;;
14247;SDS011;7208;49.826;6.004;2023-07-13T06:03:08;2.50;;;2.40;;
14247;SDS011;7208;49.826;6.004;2023-07-13T06:05:34;2.30;;;2.00;;
14247;SDS011;7208;49.826;6.004;2023-07-13T06:08:01;2.00;;;1.90;;
14247;SDS011;7208;49.826;6.004;2023-07-13T06:10:27;2.57;;;2.00;;
14247;SDS011;7208;49.826;6.004;2023-07-13T06:12:53;1.53;;;1.53;;
14247;SDS011;7208;49.826;6.004;2023-07-13T06:15:19;1.70;;;1.47;;
14247;SDS011;7208;49.826;6.004;2023-07-13T06:17:45;1.93;;;1.83;;
14247;SDS011;7208;49.826;6.004;2023-07-13T06:20:11;2.13;;;1.67;;
14247;SDS011;7208;49.826;6.004;2023-07-13T06:22:37;1.60;;;1.47;;
14247;SDS011;7208;49.826;6.004;2023-07-13T06:25:03;2.67;;;1.60;;
14247;SDS011;7208;49.826;6.004;2023-07-13T06:27:29;4.37;;;2.03;;
14247;SDS011;7208;49.826;6.004;2023-07-13T06:29:55;2.70;;;1.63;;
14247;SDS011;7208;49.826;6.004;2023-07-13T06:32:21;1.43;;;1.30;;
14247;SDS011;7208;49.826;6.004;2023-07-13T06:34:47;1.63;;;1.10;;
14247;SDS011;7208;49.826;6.004;2023-07-13T06:37:13;1.60;;;0.90;;
14247;SDS011;7208;49.826;6.004;2023-07-13T06:39:39;2.73;;;1.33;;
14247;SDS011;7208;49.826;6.004;2023-07-13T06:42:05;1.03;;;0.97;;
14247;SDS011;7208;49.826;6.004;2023-07-13T06:44:32;2.03;;;1.00;;
14247;SDS011;7208;49.826;6.004;2023-07-13T06:46:58;0.97;;;0.80;;
14247;SDS011;7208;49.826;6.004;2023-07-13T06:49:24;1.20;;;0.90;;
14247;SDS011;7208;49.826;6.004;2023-07-13T06:51:50;3.63;;;1.07;;
14247;SDS011;7208;49.826;6.004;2023-07-13T06:54:16;2.70;;;1.00;;
14247;SDS011;7208;49.826;6.004;2023-07-13T06:56:42;2.10;;;0.90;;
14247;SDS011;7208;49.826;6.004;2023-07-13T06:59:08;2.87;;;1.13;;
14247;SDS011;7208;49.826;6.004;2023-07-13T07:01:34;1.63;;;1.07;;
14247;SDS011;7208;49.826;6.004;2023-07-13T07:04:00;1.73;;;1.00;;
14247;SDS011;7208;49.826;6.004;2023-07-13T07:06:26;1.73;;;1.13;;
14247;SDS011;7208;49.826;6.004;2023-07-13T07:08:52;1.83;;;1.00;;
14247;SDS011;7208;49.826;6.004;2023-07-13T07:11:20;1.07;;;0.70;;
14247;SDS011;7208;49.826;6.004;2023-07-13T07:13:49;1.67;;;1.50;;
14247;SDS011;7208;49.826;6.004;2023-07-13T07:16:16;2.07;;;0.93;;
14247;SDS011;7208;49.826;6.004;2023-07-13T07:18:42;1.57;;;1.00;;
14247;SDS011;7208;49.826;6.004;2023-07-13T07:21:08;1.30;;;0.60;;
14247;SDS011;7208;49.826;6.004;2023-07-13T07:23:34;1.10;;;0.70;;
14247;SDS011;7208;49.826;6.004;2023-07-13T07:26:00;2.37;;;0.67;;
14247;SDS011;7208;49.826;6.004;2023-07-13T07:28:26;1.97;;;0.90;;
14247;SDS011;7208;49.826;6.004;2023-07-13T07:30:54;1.40;;;1.07;;
14247;SDS011;7208;49.826;6.004;2023-07-13T07:33:20;1.30;;;0.60;;
14247;SDS011;7208;49.826;6.004;2023-07-13T07:35:46;1.90;;;0.60;;
14247;SDS011;7208;49.826;6.004;2023-07-13T07:38:12;0.90;;;0.60;;
14247;SDS011;7208;49.826;6.004;2023-07-13T07:40:39;0.90;;;0.77;;
14247;SDS011;7208;49.826;6.004;2023-07-13T07:43:05;3.07;;;0.87;;
14247;SDS011;7208;49.826;6.004;2023-07-13T07:45:32;1.90;;;0.90;;
14247;SDS011;7208;49.826;6.004;2023-07-13T07:47:58;1.63;;;0.60;;
14247;SDS011;7208;49.826;6.004;2023-07-13T07:50:24;1.63;;;0.80;;
14247;SDS011;7208;49.826;6.004;2023-07-13T07:52:50;1.97;;;0.70;;
14247;SDS011;7208;49.826;6.004;2023-07-13T07:55:17;2.77;;;0.80;;
14247;SDS011;7208;49.826;6.004;2023-07-13T07:57:43;1.40;;;0.53;;
14247;SDS011;7208;49.826;6.004;2023-07-13T08:00:09;2.00;;;1.00;;
14247;SDS011;7208;49.826;6.004;2023-07-13T08:02:35;0.93;;;0.63;;
14247;SDS011;7208;49.826;6.004;2023-07-13T08:05:01;1.63;;;0.67;;
14247;SDS011;7208;49.826;6.004;2023-07-13T08:07:29;0.90;;;0.60;;
14247;SDS011;7208;49.826;6.004;2023-07-13T08:09:56;0.97;;;0.50;;
14247;SDS011;7208;49.826;6.004;2023-07-13T08:12:22;0.87;;;0.60;;
14247;SDS011;7208;49.826;6.004;2023-07-13T08:14:51;1.10;;;0.60;;
14247;SDS011;7208;49.826;6.004;2023-07-13T08:17:22;1.50;;;0.70;;
14247;SDS011;7208;49.826;6.004;2023-07-13T08:19:48;1.73;;;1.07;;
14247;SDS011;7208;49.826;6.004;2023-07-13T08:22:14;0.83;;;0.83;;
14247;SDS011;7208;49.826;6.004;2023-07-13T08:24:41;0.80;;;0.80;;
14247;SDS011;7208;49.826;6.004;2023-07-13T08:27:10;0.93;;;0.70;;
14247;SDS011;7208;49.826;6.004;2023-07-13T08:29:37;1.40;;;1.00;;
14247;SDS011;7208;49.826;6.004;2023-07-13T08:32:04;1.00;;;0.90;;
14247;SDS011;7208;49.826;6.004;2023-07-13T08:34:30;1.60;;;1.00;;
14247;SDS011;7208;49.826;6.004;2023-07-13T08:36:57;1.47;;;1.00;;
14247;SDS011;7208;49.826;6.004;2023-07-13T08:39:23;1.10;;;1.10;;
14247;SDS011;7208;49.826;6.004;2023-07-13T08:41:50;1.47;;;0.90;;
14247;SDS011;7208;49.826;6.004;2023-07-13T08:44:20;1.10;;;1.00;;
14247;SDS011;7208;49.826;6.004;2023-07-13T08:46:49;0.90;;;0.90;;
14247;SDS011;7208;49.826;6.004;2023-07-13T08:49:18;1.63;;;1.00;;
14247;SDS011;7208;49.826;6.004;2023-07-13T08:51:53;1.23;;;1.00;;
14247;SDS011;7208;49.826;6.004;2023-07-13T08:54:28;3.43;;;1.10;;
14247;SDS011;7208;49.826;6.004;2023-07-13T08:56:54;0.97;;;0.97;;
14247;SDS011;7208;49.826;6.004;2023-07-13T08:59:22;2.60;;;0.93;;
14247;SDS011;7208;49.826;6.004;2023-07-13T09:04:30;0.90;;;0.90;;
14247;SDS011;7208;49.826;6.004;2023-07-13T09:12:23;1.50;;;0.90;;
14247;SDS011;7208;49.826;6.004;2023-07-13T09:14:54;1.33;;;1.00;;
14247;SDS011;7208;49.826;6.004;2023-07-13T09:17:29;1.37;;;0.97;;
14247;SDS011;7208;49.826;6.004;2023-07-13T09:20:06;0.80;;;0.80;;
14247;SDS011;7208;49.826;6.004;2023-07-13T09:22:34;1.10;;;1.00;;
14247;SDS011;7208;49.826;6.004;2023-07-13T09:25:18;0.97;;;0.83;;
14247;SDS011;7208;49.826;6.004;2023-07-13T09:27:47;1.60;;;1.20;;
14247;SDS011;7208;49.826;6.004;2023-07-13T09:32:40;1.13;;;1.03;;
14247;SDS011;7208;49.826;6.004;2023-07-13T09:35:16;0.93;;;0.90;;
14247;SDS011;7208;49.826;6.004;2023-07-13T09:37:43;1.77;;;0.93;;
14247;SDS011;7208;49.826;6.004;2023-07-13T09:40:11;0.70;;;0.70;;
14247;SDS011;7208;49.826;6.004;2023-07-13T09:42:39;0.87;;;0.87;;
14247;SDS011;7208;49.826;6.004;2023-07-13T09:45:05;0.70;;;0.70;;
14247;SDS011;7208;49.826;6.004;2023-07-13T09:47:33;0.73;;;0.70;;
14247;SDS011;7208;49.826;6.004;2023-07-13T09:50:04;1.03;;;0.80;;
14247;SDS011;7208;49.826;6.004;2023-07-13T09:52:42;1.23;;;0.70;;
14247;SDS011;7208;49.826;6.004;2023-07-13T09:57:53;1.53;;;0.60;;
14247;SDS011;7208;49.826;6.004;2023-07-13T10:00:29;1.20;;;0.90;;
14247;SDS011;7208;49.826;6.004;2023-07-13T10:03:03;0.70;;;0.50;;
14247;SDS011;7208;49.826;6.004;2023-07-13T10:05:39;0.40;;;0.40;;
14247;SDS011;7208;49.826;6.004;2023-07-13T10:08:09;0.57;;;0.40;;
14247;SDS011;7208;49.826;6.004;2023-07-13T10:10:40;0.50;;;0.50;;
14247;SDS011;7208;49.826;6.004;2023-07-13T10:13:19;0.73;;;0.60;;
14247;SDS011;7208;49.826;6.004;2023-07-13T10:15:45;0.53;;;0.53;;
14247;SDS011;7208;49.826;6.004;2023-07-13T10:18:14;1.43;;;1.00;;
14247;SDS011;7208;49.826;6.004;2023-07-13T10:20:42;0.60;;;0.60;;
14247;SDS011;7208;49.826;6.004;2023-07-13T10:23:11;0.63;;;0.60;;
14247;SDS011;7208;49.826;6.004;2023-07-13T10:25:42;0.70;;;0.70;;
14247;SDS011;7208;49.826;6.004;2023-07-13T10:28:17;2.33;;;0.80;;
14247;SDS011;7208;49.826;6.004;2023-07-13T10:30:48;0.93;;;0.53;;
14247;SDS011;7208;49.826;6.004;2023-07-13T10:33:15;0.40;;;0.40;;
14247;SDS011;7208;49.826;6.004;2023-07-13T10:35:42;0.50;;;0.50;;
14247;SDS011;7208;49.826;6.004;2023-07-13T10:38:18;0.30;;;0.30;;
14247;SDS011;7208;49.826;6.004;2023-07-13T10:40:56;0.70;;;0.50;;
14247;SDS011;7208;49.826;6.004;2023-07-13T10:43:25;1.43;;;0.60;;
14247;SDS011;7208;49.826;6.004;2023-07-13T10:45:52;1.23;;;0.50;;
14247;SDS011;7208;49.826;6.004;2023-07-13T10:48:19;1.10;;;0.50;;
14247;SDS011;7208;49.826;6.004;2023-07-13T10:50:48;1.47;;;0.60;;
14247;SDS011;7208;49.826;6.004;2023-07-13T10:53:19;0.83;;;0.77;;
14247;SDS011;7208;49.826;6.004;2023-07-13T11:00:56;0.40;;;0.40;;
14247;SDS011;7208;49.826;6.004;2023-07-13T11:03:23;2.77;;;0.77;;
14247;SDS011;7208;49.826;6.004;2023-07-13T11:06:03;0.63;;;0.63;;
14247;SDS011;7208;49.826;6.004;2023-07-13T11:10:56;0.50;;;0.50;;
14247;SDS011;7208;49.826;6.004;2023-07-13T11:16:53;1.00;;;0.73;;
14247;SDS011;7208;49.826;6.004;2023-07-13T11:21:29;0.50;;;0.50;;
14247;SDS011;7208;49.826;6.004;2023-07-13T11:24:02;1.30;;;0.60;;
14247;SDS011;7208;49.826;6.004;2023-07-13T11:31:55;0.90;;;0.90;;
14247;SDS011;7208;49.826;6.004;2023-07-13T11:34:29;1.20;;;1.20;;
14247;SDS011;7208;49.826;6.004;2023-07-13T11:36:56;2.17;;;2.07;;
14247;SDS011;7208;49.826;6.004;2023-07-13T11:39:24;2.97;;;2.80;;
14247;SDS011;7208;49.826;6.004;2023-07-13T11:41:55;3.20;;;3.10;;
14247;SDS011;7208;49.826;6.004;2023-07-13T11:44:23;3.67;;;3.47;;
14247;SDS011;7208;49.826;6.004;2023-07-13T11:46:50;3.13;;;2.93;;
14247;SDS011;7208;49.826;6.004;2023-07-13T11:49:18;2.73;;;2.63;;
14247;SDS011;7208;49.826;6.004;2023-07-13T11:51:44;3.40;;;3.30;;
14247;SDS011;7208;49.826;6.004;2023-07-13T11:54:27;2.60;;;2.60;;
14247;SDS011;7208;49.826;6.004;2023-07-13T11:56:58;3.17;;;3.07;;
14247;SDS011;7208;49.826;6.004;2023-07-13T11:59:26;3.73;;;3.57;;
14247;SDS011;7208;49.826;6.004;2023-07-13T12:01:53;3.17;;;3.07;;
14247;SDS011;7208;49.826;6.004;2023-07-13T12:04:24;2.07;;;1.97;;
14247;SDS011;7208;49.826;6.004;2023-07-13T12:06:55;1.80;;;1.70;;
14247;SDS011;7208;49.826;6.004;2023-07-13T12:09:25;2.87;;;1.43;;
14247;SDS011;7208;49.826;6.004;2023-07-13T12:11:51;2.27;;;2.17;;
14247;SDS011;7208;49.826;6.004;2023-07-13T12:14:18;1.90;;;1.90;;
14247;SDS011;7208;49.826;6.004;2023-07-13T12:16:45;2.30;;;2.20;;
14247;SDS011;7208;49.826;6.004;2023-07-13T12:19:18;2.90;;;2.80;;
14247;SDS011;7208;49.826;6.004;2023-07-13T12:21:45;2.00;;;1.90;;
14247;SDS011;7208;49.826;6.004;2023-07-13T12:24:15;1.90;;;1.80;;
14247;SDS011;7208;49.826;6.004;2023-07-13T12:26:42;1.80;;;1.70;;
14247;SDS011;7208;49.826;6.004;2023-07-13T12:29:11;1.37;;;1.37;;
14247;SDS011;7208;49.826;6.004;2023-07-13T12:31:43;1.57;;;1.57;;
14247;SDS011;7208;49.826;6.004;2023-07-13T12:34:17;1.90;;;1.80;;
14247;SDS011;7208;49.826;6.004;2023-07-13T12:39:28;0.83;;;0.83;;
14247;SDS011;7208;49.826;6.004;2023-07-13T12:42:11;0.77;;;0.77;;
14247;SDS011;7208;49.826;6.004;2023-07-13T12:44:40;1.13;;;0.70;;
14247;SDS011;7208;49.826;6.004;2023-07-13T12:47:09;1.20;;;1.20;;
14247;SDS011;7208;49.826;6.004;2023-07-13T12:49:40;2.20;;;2.10;;
14247;SDS011;7208;49.826;6.004;2023-07-13T12:52:14;2.50;;;2.40;;
14247;SDS011;7208;49.826;6.004;2023-07-13T12:54:40;3.10;;;3.00;;
14247;SDS011;7208;49.826;6.004;2023-07-13T12:57:08;2.67;;;2.53;;
14247;SDS011;7208;49.826;6.004;2023-07-13T12:59:39;1.90;;;1.90;;
14247;SDS011;7208;49.826;6.004;2023-07-13T13:04:51;1.10;;;1.00;;
14247;SDS011;7208;49.826;6.004;2023-07-13T13:07:20;1.77;;;1.67;;
14247;SDS011;7208;49.826;6.004;2023-07-13T13:09:47;1.10;;;1.10;;
14247;SDS011;7208;49.826;6.004;2023-07-13T13:12:14;1.70;;;1.70;;
14247;SDS011;7208;49.826;6.004;2023-07-13T13:14:42;1.07;;;1.03;;
14247;SDS011;7208;49.826;6.004;2023-07-13T13:17:15;0.80;;;0.73;;
14247;SDS011;7208;49.826;6.004;2023-07-13T13:19:44;0.50;;;0.50;;
14247;SDS011;7208;49.826;6.004;2023-07-13T13:22:11;1.07;;;0.83;;
14247;SDS011;7208;49.826;6.004;2023-07-13T13:24:37;1.57;;;0.70;;
14247;SDS011;7208;49.826;6.004;2023-07-13T13:27:03;0.60;;;0.50;;
14247;SDS011;7208;49.826;6.004;2023-07-13T13:29:31;0.80;;;0.70;;
14247;SDS011;7208;49.826;6.004;2023-07-13T13:31:58;0.73;;;0.37;;
14247;SDS011;7208;49.826;6.004;2023-07-13T13:34:25;1.00;;;0.87;;
14247;SDS011;7208;49.826;6.004;2023-07-13T13:36:51;2.13;;;2.03;;
14247;SDS011;7208;49.826;6.004;2023-07-13T13:39:19;2.77;;;0.97;;
14247;SDS011;7208;49.826;6.004;2023-07-13T13:41:46;2.10;;;1.90;;
14247;SDS011;7208;49.826;6.004;2023-07-13T13:44:14;2.10;;;1.80;;
14247;SDS011;7208;49.826;6.004;2023-07-13T13:46:41;0.97;;;0.97;;
14247;SDS011;7208;49.826;6.004;2023-07-13T13:49:16;0.97;;;0.97;;
14247;SDS011;7208;49.826;6.004;2023-07-13T13:51:43;1.70;;;1.60;;
14247;SDS011;7208;49.826;6.004;2023-07-13T13:54:10;1.30;;;1.30;;
14247;SDS011;7208;49.826;6.004;2023-07-13T13:56:36;1.00;;;1.00;;
14247;SDS011;7208;49.826;6.004;2023-07-13T13:59:03;2.00;;;1.03;;
14247;SDS011;7208;49.826;6.004;2023-07-13T14:01:29;0.70;;;0.70;;
14247;SDS011;7208;49.826;6.004;2023-07-13T14:03:56;0.77;;;0.73;;
14247;SDS011;7208;49.826;6.004;2023-07-13T14:06:24;0.65;;;0.65;;
14247;SDS011;7208;49.826;6.004;2023-07-13T14:08:50;1.27;;;0.60;;
14247;SDS011;7208;49.826;6.004;2023-07-13T14:11:17;0.93;;;0.73;;
14247;SDS011;7208;49.826;6.004;2023-07-13T14:13:45;1.50;;;1.40;;
14247;SDS011;7208;49.826;6.004;2023-07-13T14:16:17;0.80;;;0.80;;
14247;SDS011;7208;49.826;6.004;2023-07-13T14:18:44;0.93;;;0.68;;
14247;SDS011;7208;49.826;6.004;2023-07-13T14:21:17;1.55;;;0.52;;
14247;SDS011;7208;49.826;6.004;2023-07-13T14:23:44;2.22;;;0.70;;
14247;SDS011;7208;49.826;6.004;2023-07-13T14:26:14;1.60;;;0.50;;
14247;SDS011;7208;49.826;6.004;2023-07-13T14:28:42;0.43;;;0.40;;
14247;SDS011;7208;49.826;6.004;2023-07-13T14:31:09;3.30;;;0.70;;
14247;SDS011;7208;49.826;6.004;2023-07-13T14:33:35;0.40;;;0.40;;
14247;SDS011;7208;49.826;6.004;2023-07-13T14:36:02;1.23;;;0.50;;
14247;SDS011;7208;49.826;6.004;2023-07-13T14:38:28;0.43;;;0.40;;
14247;SDS011;7208;49.826;6.004;2023-07-13T14:40:54;0.60;;;0.60;;
14247;SDS011;7208;49.826;6.004;2023-07-13T14:43:20;0.45;;;0.45;;
14247;SDS011;7208;49.826;6.004;2023-07-13T14:45:47;0.52;;;0.47;;
14247;SDS011;7208;49.826;6.004;2023-07-13T14:48:15;0.65;;;0.60;;
14247;SDS011;7208;49.826;6.004;2023-07-13T14:50:42;0.88;;;0.60;;
14247;SDS011;7208;49.826;6.004;2023-07-13T14:53:09;0.50;;;0.50;;
14247;SDS011;7208;49.826;6.004;2023-07-13T14:55:36;0.50;;;0.40;;
14247;SDS011;7208;49.826;6.004;2023-07-13T14:58:02;0.55;;;0.50;;
14247;SDS011;7208;49.826;6.004;2023-07-13T15:00:28;0.50;;;0.50;;
14247;SDS011;7208;49.826;6.004;2023-07-13T15:02:56;0.65;;;0.65;;
14247;SDS011;7208;49.826;6.004;2023-07-13T15:05:24;1.05;;;1.00;;
14247;SDS011;7208;49.826;6.004;2023-07-13T15:07:51;2.13;;;0.70;;
14247;SDS011;7208;49.826;6.004;2023-07-13T15:10:22;1.25;;;0.90;;
14247;SDS011;7208;49.826;6.004;2023-07-13T15:12:51;1.55;;;0.73;;
14247;SDS011;7208;49.826;6.004;2023-07-13T15:15:17;0.70;;;0.63;;
14247;SDS011;7208;49.826;6.004;2023-07-13T15:17:44;1.73;;;1.70;;
14247;SDS011;7208;49.826;6.004;2023-07-13T15:20:15;1.30;;;1.30;;
14247;SDS011;7208;49.826;6.004;2023-07-13T15:22:43;1.87;;;1.77;;
14247;SDS011;7208;49.826;6.004;2023-07-13T15:25:19;1.33;;;1.02;;
14247;SDS011;7208;49.826;6.004;2023-07-13T15:27:46;1.57;;;1.00;;
14247;SDS011;7208;49.826;6.004;2023-07-13T15:30:12;0.60;;;0.60;;
14247;SDS011;7208;49.826;6.004;2023-07-13T15:32:39;1.63;;;1.52;;
14247;SDS011;7208;49.826;6.004;2023-07-13T15:35:09;1.98;;;0.75;;
14247;SDS011;7208;49.826;6.004;2023-07-13T15:37:39;0.50;;;0.50;;
14247;SDS011;7208;49.826;6.004;2023-07-13T15:40:05;0.90;;;0.50;;
14247;SDS011;7208;49.826;6.004;2023-07-13T15:42:32;0.40;;;0.40;;